sensor_id;sensor_type;location;lat;lon;timestamp;pressure;altitude;pressure_sealevel;temperature
30001;BMP280;16845;48.670;9.000;2023-08-06T00:01:22;94837.56;;;14.78
30001;BMP280;16845;48.670;9.000;2023-08-06T00:03:49;94830.06;;;14.76
30001;BMP280;16845;48.670;9.000;2023-08-06T00:06:15;94825.97;;;14.74
30001;BMP280;16845;48.670;9.000;2023-08-06T00:08:42;94827.47;;;14.78
30001;BMP280;16845;48.670;9.000;2023-08-06T00:11:10;94819.13;;;14.76
30001;BMP280;16845;48.670;9.000;2023-08-06T00:13:36;94823.13;;;14.80
30001;BMP280;16845;48.670;9.000;2023-08-06T00:16:10;94827.47;;;14.78
30001;BMP280;16845;48.670;9.000;2023-08-06T00:18:37;94831.38;;;14.68
30001;BMP280;16845;48.670;9.000;2023-08-06T00:21:03;94828.66;;;14.57
30001;BMP280;16845;48.670;9.000;2023-08-06T00:23:30;94828.66;;;14.57
30001;BMP280;16845;48.670;9.000;2023-08-06T00:25:56;94836.47;;;14.52
30001;BMP280;16845;48.670;9.000;2023-08-06T00:28:24;94832.56;;;14.47
30001;BMP280;16845;48.670;9.000;2023-08-06T00:30:52;94830.94;;;14.46
30001;BMP280;16845;48.670;9.000;2023-08-06T00:33:19;94834.13;;;14.34
30001;BMP280;16845;48.670;9.000;2023-08-06T00:35:46;94827.09;;;14.39
30001;BMP280;16845;48.670;9.000;2023-08-06T00:38:12;94812.53;;;14.44
30001;BMP280;16845;48.670;9.000;2023-08-06T00:40:39;94808.47;;;14.41
30001;BMP280;16845;48.670;9.000;2023-08-06T00:43:05;94810.25;;;14.55
30001;BMP280;16845;48.670;9.000;2023-08-06T00:45:35;94810.41;;;14.52
30001;BMP280;16845;48.670;9.000;2023-08-06T00:48:04;94802.56;;;14.56
30001;BMP280;16845;48.670;9.000;2023-08-06T00:50:31;94793.06;;;14.46
30001;BMP280;16845;48.670;9.000;2023-08-06T00:52:58;94800.16;;;14.39
30001;BMP280;16845;48.670;9.000;2023-08-06T00:55:25;94785.53;;;14.30
30001;BMP280;16845;48.670;9.000;2023-08-06T00:57:52;94788.06;;;14.30
30001;BMP280;16845;48.670;9.000;2023-08-06T01:00:19;94783.06;;;14.29
30001;BMP280;16845;48.670;9.000;2023-08-06T01:02:47;94788.66;;;14.20
30001;BMP280;16845;48.670;9.000;2023-08-06T01:05:14;94797.09;;;14.19
30001;BMP280;16845;48.670;9.000;2023-08-06T01:07:51;94799.03;;;14.14
30001;BMP280;16845;48.670;9.000;2023-08-06T01:10:32;94797.56;;;14.10
30001;BMP280;16845;48.670;9.000;2023-08-06T01:13:08;94795.69;;;13.98
30001;BMP280;16845;48.670;9.000;2023-08-06T01:15:41;94792.84;;;14.04
30001;BMP280;16845;48.670;9.000;2023-08-06T01:18:11;94799.19;;;14.11
30001;BMP280;16845;48.670;9.000;2023-08-06T01:20:39;94788.75;;;14.02
30001;BMP280;16845;48.670;9.000;2023-08-06T01:23:06;94781.13;;;14.03
30001;BMP280;16845;48.670;9.000;2023-08-06T01:25:34;94777.53;;;14.07
30001;BMP280;16845;48.670;9.000;2023-08-06T01:28:07;94778.19;;;13.95
30001;BMP280;16845;48.670;9.000;2023-08-06T01:30:38;94788.88;;;14.00
30001;BMP280;16845;48.670;9.000;2023-08-06T01:33:09;94784.22;;;13.77
30001;BMP280;16845;48.670;9.000;2023-08-06T01:35:42;94792.84;;;14.04
30001;BMP280;16845;48.670;9.000;2023-08-06T01:38:08;94783.34;;;14.09
30001;BMP280;16845;48.670;9.000;2023-08-06T01:40:35;94783.22;;;14.10
30001;BMP280;16845;48.670;9.000;2023-08-06T01:43:01;94777.22;;;14.13
30001;BMP280;16845;48.670;9.000;2023-08-06T01:45:28;94787.13;;;14.01
30001;BMP280;16845;48.670;9.000;2023-08-06T01:47:54;94785.03;;;13.93
30001;BMP280;16845;48.670;9.000;2023-08-06T01:50:21;94787.00;;;14.04
30001;BMP280;16845;48.670;9.000;2023-08-06T01:52:49;94779.56;;;13.85
30001;BMP280;16845;48.670;9.000;2023-08-06T01:55:15;94782.44;;;13.79
30001;BMP280;16845;48.670;9.000;2023-08-06T01:57:42;94771.50;;;13.79
30001;BMP280;16845;48.670;9.000;2023-08-06T02:00:09;94776.81;;;13.74
30001;BMP280;16845;48.670;9.000;2023-08-06T02:02:36;94778.34;;;13.61
30001;BMP280;16845;48.670;9.000;2023-08-06T02:05:03;94765.09;;;13.58
30001;BMP280;16845;48.670;9.000;2023-08-06T02:07:30;94762.66;;;13.56
30001;BMP280;16845;48.670;9.000;2023-08-06T02:09:58;94757.91;;;13.50
30001;BMP280;16845;48.670;9.000;2023-08-06T02:12:24;94750.03;;;13.56
30001;BMP280;16845;48.670;9.000;2023-08-06T02:14:51;94745.25;;;13.52
30001;BMP280;16845;48.670;9.000;2023-08-06T02:17:17;94745.94;;;13.38
30001;BMP280;16845;48.670;9.000;2023-08-06T02:19:44;94748.72;;;13.49
30001;BMP280;16845;48.670;9.000;2023-08-06T02:22:10;94741.50;;;13.43
30001;BMP280;16845;48.670;9.000;2023-08-06T02:24:37;94732.09;;;13.47
30001;BMP280;16845;48.670;9.000;2023-08-06T02:27:05;94734.50;;;13.48
30001;BMP280;16845;48.670;9.000;2023-08-06T02:29:32;94735.41;;;13.47
30001;BMP280;16845;48.670;9.000;2023-08-06T02:31:58;94728.56;;;13.49
30001;BMP280;16845;48.670;9.000;2023-08-06T02:34:25;94726.03;;;13.49
30001;BMP280;16845;48.670;9.000;2023-08-06T02:36:51;94732.34;;;13.58
30001;BMP280;16845;48.670;9.000;2023-08-06T02:39:18;94727.78;;;13.64
30001;BMP280;16845;48.670;9.000;2023-08-06T02:41:45;94719.16;;;13.68
30001;BMP280;16845;48.670;9.000;2023-08-06T02:44:13;94715.19;;;13.64
30001;BMP280;16845;48.670;9.000;2023-08-06T02:46:39;94712.97;;;13.58
30001;BMP280;16845;48.670;9.000;2023-08-06T02:49:06;94712.47;;;13.67
30001;BMP280;16845;48.670;9.000;2023-08-06T02:51:32;94705.16;;;13.78
30001;BMP280;16845;48.670;9.000;2023-08-06T02:53:59;94700.53;;;13.86
30001;BMP280;16845;48.670;9.000;2023-08-06T02:56:25;94696.84;;;13.92
30001;BMP280;16845;48.670;9.000;2023-08-06T02:58:52;94694.91;;;13.81
30001;BMP280;16845;48.670;9.000;2023-08-06T03:01:20;94692.78;;;13.89
30001;BMP280;16845;48.670;9.000;2023-08-06T03:03:46;94686.66;;;13.93
30001;BMP280;16845;48.670;9.000;2023-08-06T03:06:13;94683.50;;;13.90
30001;BMP280;16845;48.670;9.000;2023-08-06T03:08:39;94682.88;;;13.86
30001;BMP280;16845;48.670;9.000;2023-08-06T03:11:06;94680.41;;;14.00
30001;BMP280;16845;48.670;9.000;2023-08-06T03:13:32;94672.72;;;14.02
30001;BMP280;16845;48.670;9.000;2023-08-06T03:15:59;94668.84;;;13.96
30001;BMP280;16845;48.670;9.000;2023-08-06T03:18:27;94671.69;;;14.06
30001;BMP280;16845;48.670;9.000;2023-08-06T03:20:54;94671.09;;;14.01
30001;BMP280;16845;48.670;9.000;2023-08-06T03:23:20;94670.25;;;13.86
30001;BMP280;16845;48.670;9.000;2023-08-06T03:25:47;94660.53;;;14.09
30001;BMP280;16845;48.670;9.000;2023-08-06T03:28:14;94667.53;;;14.05
30001;BMP280;16845;48.670;9.000;2023-08-06T03:30:40;94673.75;;;13.99
30001;BMP280;16845;48.670;9.000;2023-08-06T03:33:07;94674.28;;;14.04
30001;BMP280;16845;48.670;9.000;2023-08-06T03:35:34;94677.31;;;13.95
30001;BMP280;16845;48.670;9.000;2023-08-06T03:38:01;94679.09;;;13.93
30001;BMP280;16845;48.670;9.000;2023-08-06T03:40:27;94677.94;;;13.99
30001;BMP280;16845;48.670;9.000;2023-08-06T03:42:54;94673.84;;;14.11
30001;BMP280;16845;48.670;9.000;2023-08-06T03:45:21;94670.63;;;13.94
30001;BMP280;16845;48.670;9.000;2023-08-06T03:47:47;94663.47;;;14.02
30001;BMP280;16845;48.670;9.000;2023-08-06T03:50:14;94667.06;;;13.98
30001;BMP280;16845;48.670;9.000;2023-08-06T03:52:42;94674.34;;;14.18
30001;BMP280;16845;48.670;9.000;2023-08-06T03:55:09;94664.41;;;14.15
30001;BMP280;16845;48.670;9.000;2023-08-06T03:57:35;94661.59;;;14.06
30001;BMP280;16845;48.670;9.000;2023-08-06T04:00:02;94656.13;;;14.13
30001;BMP280;16845;48.670;9.000;2023-08-06T04:02:29;94661.97;;;14.13
30001;BMP280;16845;48.670;9.000;2023-08-06T04:04:55;94659.97;;;14.20
30001;BMP280;16845;48.670;9.000;2023-08-06T04:07:22;94667.13;;;14.12
30001;BMP280;16845;48.670;9.000;2023-08-06T04:09:54;94676.34;;;13.82
30001;BMP280;16845;48.670;9.000;2023-08-06T04:12:21;94678.50;;;13.74
30001;BMP280;16845;48.670;9.000;2023-08-06T04:14:49;94690.03;;;13.63
30001;BMP280;16845;48.670;9.000;2023-08-06T04:17:15;94691.97;;;13.89
30001;BMP280;16845;48.670;9.000;2023-08-06T04:19:42;94682.16;;;13.69
30001;BMP280;16845;48.670;9.000;2023-08-06T04:22:08;94679.00;;;13.65
30001;BMP280;16845;48.670;9.000;2023-08-06T04:24:35;94688.72;;;13.71
30001;BMP280;16845;48.670;9.000;2023-08-06T04:27:04;94690.53;;;13.69
30001;BMP280;16845;48.670;9.000;2023-08-06T04:29:30;94692.16;;;13.70
30001;BMP280;16845;48.670;9.000;2023-08-06T04:31:57;94692.06;;;13.72
30001;BMP280;16845;48.670;9.000;2023-08-06T04:34:24;94688.41;;;13.77
30001;BMP280;16845;48.670;9.000;2023-08-06T04:36:50;94689.06;;;13.65
30001;BMP280;16845;48.670;9.000;2023-08-06T04:39:17;94694.91;;;13.81
30001;BMP280;16845;48.670;9.000;2023-08-06T04:41:43;94691.34;;;13.70
30001;BMP280;16845;48.670;9.000;2023-08-06T04:44:11;94693.69;;;13.88
30001;BMP280;16845;48.670;9.000;2023-08-06T04:46:37;94692.63;;;13.92
30001;BMP280;16845;48.670;9.000;2023-08-06T04:49:04;94691.31;;;13.85
30001;BMP280;16845;48.670;9.000;2023-08-06T04:51:30;94698.25;;;13.82
30001;BMP280;16845;48.670;9.000;2023-08-06T04:53:57;94698.16;;;13.83
30001;BMP280;16845;48.670;9.000;2023-08-06T04:56:24;94701.06;;;13.91
30001;BMP280;16845;48.670;9.000;2023-08-06T04:58:50;94701.25;;;13.88
30001;BMP280;16845;48.670;9.000;2023-08-06T05:01:18;94702.69;;;13.92
30001;BMP280;16845;48.670;9.000;2023-08-06T05:03:46;94704.63;;;14.18
30001;BMP280;16845;48.670;9.000;2023-08-06T05:06:13;94693.41;;;14.08
30001;BMP280;16845;48.670;9.000;2023-08-06T05:08:39;94693.25;;;14.11
30001;BMP280;16845;48.670;9.000;2023-08-06T05:11:06;94694.69;;;14.30
30001;BMP280;16845;48.670;9.000;2023-08-06T05:13:32;94694.38;;;14.21
30001;BMP280;16845;48.670;9.000;2023-08-06T05:15:59;94690.09;;;14.37
30001;BMP280;16845;48.670;9.000;2023-08-06T05:18:27;94693.50;;;14.65
30001;BMP280;16845;48.670;9.000;2023-08-06T05:20:53;94687.66;;;14.79
30001;BMP280;16845;48.670;9.000;2023-08-06T05:23:20;94690.84;;;14.96
30001;BMP280;16845;48.670;9.000;2023-08-06T05:25:46;94687.22;;;15.00
30001;BMP280;16845;48.670;9.000;2023-08-06T05:28:13;94688.38;;;14.95
30001;BMP280;16845;48.670;9.000;2023-08-06T05:30:39;94691.09;;;14.78
30001;BMP280;16845;48.670;9.000;2023-08-06T05:33:06;94695.25;;;14.79
30001;BMP280;16845;48.670;9.000;2023-08-06T05:35:34;94703.72;;;14.92
30001;BMP280;16845;48.670;9.000;2023-08-06T05:38:00;94697.25;;;14.88
30001;BMP280;16845;48.670;9.000;2023-08-06T05:40:27;94708.50;;;14.96
30001;BMP280;16845;48.670;9.000;2023-08-06T05:42:54;94713.13;;;14.90
30001;BMP280;16845;48.670;9.000;2023-08-06T05:45:21;94705.88;;;14.84
30001;BMP280;16845;48.670;9.000;2023-08-06T05:47:47;94710.19;;;14.68
30001;BMP280;16845;48.670;9.000;2023-08-06T05:50:14;94711.00;;;14.68
30001;BMP280;16845;48.670;9.000;2023-08-06T05:52:42;94712.94;;;14.93
30001;BMP280;16845;48.670;9.000;2023-08-06T05:55:08;94718.31;;;14.73
30001;BMP280;16845;48.670;9.000;2023-08-06T05:57:35;94713.94;;;14.61
30001;BMP280;16845;48.670;9.000;2023-08-06T06:00:02;94712.53;;;14.71
30001;BMP280;16845;48.670;9.000;2023-08-06T06:02:28;94714.31;;;14.55
30001;BMP280;16845;48.670;9.000;2023-08-06T06:04:55;94712.50;;;14.57
30001;BMP280;16845;48.670;9.000;2023-08-06T06:07:21;94709.78;;;14.46
30001;BMP280;16845;48.670;9.000;2023-08-06T06:09:49;94706.50;;;14.59
30001;BMP280;16845;48.670;9.000;2023-08-06T06:12:15;94714.78;;;14.61
30001;BMP280;16845;48.670;9.000;2023-08-06T06:14:42;94713.91;;;15.04
30001;BMP280;16845;48.670;9.000;2023-08-06T06:17:08;94710.72;;;14.73
30001;BMP280;16845;48.670;9.000;2023-08-06T06:19:35;94714.53;;;14.66
30001;BMP280;16845;48.670;9.000;2023-08-06T06:22:01;94718.88;;;14.78
30001;BMP280;16845;48.670;9.000;2023-08-06T06:24:28;94726.97;;;14.69
30001;BMP280;16845;48.670;9.000;2023-08-06T06:26:56;94724.66;;;15.08
30001;BMP280;16845;48.670;9.000;2023-08-06T06:29:22;94731.66;;;14.75
30001;BMP280;16845;48.670;9.000;2023-08-06T06:31:49;94739.78;;;14.80
30001;BMP280;16845;48.670;9.000;2023-08-06T06:34:15;94741.44;;;14.95
30001;BMP280;16845;48.670;9.000;2023-08-06T06:36:42;94738.81;;;14.82
30001;BMP280;16845;48.670;9.000;2023-08-06T06:39:08;94742.00;;;15.00
30001;BMP280;16845;48.670;9.000;2023-08-06T06:41:35;94748.88;;;15.12
30001;BMP280;16845;48.670;9.000;2023-08-06T06:44:03;94747.34;;;14.66
30001;BMP280;16845;48.670;9.000;2023-08-06T06:46:29;94739.88;;;14.49
30001;BMP280;16845;48.670;9.000;2023-08-06T06:48:56;94748.66;;;14.28
30001;BMP280;16845;48.670;9.000;2023-08-06T06:51:22;94753.16;;;14.23
30001;BMP280;16845;48.670;9.000;2023-08-06T06:53:49;94752.16;;;14.10
30001;BMP280;16845;48.670;9.000;2023-08-06T06:56:15;94750.47;;;13.64
30001;BMP280;16845;48.670;9.000;2023-08-06T06:58:42;94753.25;;;13.75
30001;BMP280;16845;48.670;9.000;2023-08-06T07:01:10;94753.88;;;13.63
30001;BMP280;16845;48.670;9.000;2023-08-06T07:03:36;94751.34;;;13.79
30001;BMP280;16845;48.670;9.000;2023-08-06T07:06:03;94750.72;;;13.75
30001;BMP280;16845;48.670;9.000;2023-08-06T07:08:29;94753.63;;;13.83
30001;BMP280;16845;48.670;9.000;2023-08-06T07:11:00;94761.13;;;13.85
30001;BMP280;16845;48.670;9.000;2023-08-06T07:13:27;94748.50;;;14.15
30001;BMP280;16845;48.670;9.000;2023-08-06T07:15:54;94749.53;;;14.11
30001;BMP280;16845;48.670;9.000;2023-08-06T07:18:22;94758.19;;;13.92
30001;BMP280;16845;48.670;9.000;2023-08-06T07:20:48;94756.88;;;14.01
30001;BMP280;16845;48.670;9.000;2023-08-06T07:23:15;94761.91;;;13.85
30001;BMP280;16845;48.670;9.000;2023-08-06T07:25:41;94770.88;;;13.91
30001;BMP280;16845;48.670;9.000;2023-08-06T07:28:08;94768.25;;;13.61
30001;BMP280;16845;48.670;9.000;2023-08-06T07:30:38;94773.97;;;13.96
30001;BMP280;16845;48.670;9.000;2023-08-06T07:33:05;94770.72;;;13.94
30001;BMP280;16845;48.670;9.000;2023-08-06T07:35:33;94770.47;;;13.98
30001;BMP280;16845;48.670;9.000;2023-08-06T07:37:59;94772.16;;;13.82
30001;BMP280;16845;48.670;9.000;2023-08-06T07:40:26;94776.97;;;13.71
30001;BMP280;16845;48.670;9.000;2023-08-06T07:42:52;94781.69;;;13.77
30001;BMP280;16845;48.670;9.000;2023-08-06T07:45:19;94778.75;;;13.69
30001;BMP280;16845;48.670;9.000;2023-08-06T07:47:45;94772.03;;;13.70
30001;BMP280;16845;48.670;9.000;2023-08-06T07:50:12;94774.63;;;13.84
30001;BMP280;16845;48.670;9.000;2023-08-06T07:52:40;94774.13;;;13.93
30001;BMP280;16845;48.670;9.000;2023-08-06T07:55:07;94770.25;;;14.03
30001;BMP280;16845;48.670;9.000;2023-08-06T07:57:34;94769.31;;;14.19
30001;BMP280;16845;48.670;9.000;2023-08-06T08:00:01;94773.56;;;14.63
30001;BMP280;16845;48.670;9.000;2023-08-06T08:02:28;94774.06;;;14.84
30001;BMP280;16845;48.670;9.000;2023-08-06T08:04:54;94766.22;;;14.74
30001;BMP280;16845;48.670;9.000;2023-08-06T08:07:21;94768.81;;;14.73
30001;BMP280;16845;48.670;9.000;2023-08-06T08:09:48;94768.09;;;14.71
30001;BMP280;16845;48.670;9.000;2023-08-06T08:12:15;94766.38;;;14.42
30001;BMP280;16845;48.670;9.000;2023-08-06T08:14:41;94766.66;;;14.22
30001;BMP280;16845;48.670;9.000;2023-08-06T08:17:08;94772.19;;;14.28
30001;BMP280;16845;48.670;9.000;2023-08-06T08:19:34;94772.25;;;14.27
30001;BMP280;16845;48.670;9.000;2023-08-06T08:22:01;94781.53;;;14.11
30001;BMP280;16845;48.670;9.000;2023-08-06T08:24:27;94782.75;;;13.89
30001;BMP280;16845;48.670;9.000;2023-08-06T08:26:55;94775.94;;;13.75
30001;BMP280;16845;48.670;9.000;2023-08-06T08:29:22;94774.44;;;14.02
30001;BMP280;16845;48.670;9.000;2023-08-06T08:31:49;94770.13;;;14.04
30001;BMP280;16845;48.670;9.000;2023-08-06T08:34:16;94773.97;;;13.96
30001;BMP280;16845;48.670;9.000;2023-08-06T08:36:42;94773.25;;;14.09
30001;BMP280;16845;48.670;9.000;2023-08-06T08:39:09;94766.88;;;14.48
30001;BMP280;16845;48.670;9.000;2023-08-06T08:41:36;94769.75;;;14.56
30001;BMP280;16845;48.670;9.000;2023-08-06T08:44:08;94762.84;;;14.44
30001;BMP280;16845;48.670;9.000;2023-08-06T08:46:36;94774.72;;;14.58
30001;BMP280;16845;48.670;9.000;2023-08-06T08:49:02;94774.53;;;14.61
30001;BMP280;16845;48.670;9.000;2023-08-06T08:51:30;94777.66;;;14.66
30001;BMP280;16845;48.670;9.000;2023-08-06T08:53:56;94772.44;;;14.53
30001;BMP280;16845;48.670;9.000;2023-08-06T08:56:23;94776.84;;;14.50
30001;BMP280;16845;48.670;9.000;2023-08-06T08:58:50;94771.22;;;14.90
30001;BMP280;16845;48.670;9.000;2023-08-06T09:01:18;94770.28;;;14.77
30001;BMP280;16845;48.670;9.000;2023-08-06T09:03:45;94770.63;;;15.70
30001;BMP280;16845;48.670;9.000;2023-08-06T09:06:13;94770.31;;;16.03
30001;BMP280;16845;48.670;9.000;2023-08-06T09:08:43;94770.50;;;16.91
30001;BMP280;16845;48.670;9.000;2023-08-06T09:11:13;94772.34;;;16.51
30001;BMP280;16845;48.670;9.000;2023-08-06T09:13:39;94773.63;;;16.44
30001;BMP280;16845;48.670;9.000;2023-08-06T09:16:06;94767.56;;;16.46
30001;BMP280;16845;48.670;9.000;2023-08-06T09:18:34;94776.94;;;16.58
30001;BMP280;16845;48.670;9.000;2023-08-06T09:21:00;94766.25;;;16.27
30001;BMP280;16845;48.670;9.000;2023-08-06T09:23:28;94782.78;;;16.06
30001;BMP280;16845;48.670;9.000;2023-08-06T09:25:55;94777.06;;;16.43
30001;BMP280;16845;48.670;9.000;2023-08-06T09:28:21;94776.09;;;16.05
30001;BMP280;16845;48.670;9.000;2023-08-06T09:30:48;94784.72;;;15.60
30001;BMP280;16845;48.670;9.000;2023-08-06T09:33:17;94778.81;;;15.04
30001;BMP280;16845;48.670;9.000;2023-08-06T09:35:46;94784.19;;;14.98
30001;BMP280;16845;48.670;9.000;2023-08-06T09:38:13;94791.78;;;14.98
30001;BMP280;16845;48.670;9.000;2023-08-06T09:40:40;94784.13;;;14.99
30001;BMP280;16845;48.670;9.000;2023-08-06T09:43:07;94793.28;;;14.86
30001;BMP280;16845;48.670;9.000;2023-08-06T09:45:35;94792.38;;;14.87
30001;BMP280;16845;48.670;9.000;2023-08-06T09:48:03;94785.00;;;14.55
30001;BMP280;16845;48.670;9.000;2023-08-06T09:50:32;94794.28;;;14.39
30001;BMP280;16845;48.670;9.000;2023-08-06T09:53:00;94802.78;;;14.22
30001;BMP280;16845;48.670;9.000;2023-08-06T09:55:27;94805.47;;;14.35
30001;BMP280;16845;48.670;9.000;2023-08-06T09:57:54;94797.72;;;14.07
30001;BMP280;16845;48.670;9.000;2023-08-06T10:00:22;94804.56;;;14.05
30001;BMP280;16845;48.670;9.000;2023-08-06T10:02:48;94809.13;;;14.29
30001;BMP280;16845;48.670;9.000;2023-08-06T10:05:15;94814.84;;;14.33
30001;BMP280;16845;48.670;9.000;2023-08-06T10:07:43;94809.53;;;14.07
30001;BMP280;16845;48.670;9.000;2023-08-06T10:10:11;94812.84;;;14.53
30001;BMP280;16845;48.670;9.000;2023-08-06T10:12:40;94810.06;;;14.58
30001;BMP280;16845;48.670;9.000;2023-08-06T10:15:13;94812.53;;;14.59
30001;BMP280;16845;48.670;9.000;2023-08-06T10:17:41;94810.06;;;14.58
30001;BMP280;16845;48.670;9.000;2023-08-06T10:20:17;94810.31;;;14.53
30001;BMP280;16845;48.670;9.000;2023-08-06T10:22:43;94820.66;;;14.49
30001;BMP280;16845;48.670;9.000;2023-08-06T10:25:16;94834.84;;;14.36
30001;BMP280;16845;48.670;9.000;2023-08-06T10:27:53;94849.97;;;14.51
30001;BMP280;16845;48.670;9.000;2023-08-06T10:30:21;94829.13;;;14.48
30001;BMP280;16845;48.670;9.000;2023-08-06T10:32:48;94838.34;;;14.49
30001;BMP280;16845;48.670;9.000;2023-08-06T10:35:29;94842.19;;;14.40
30001;BMP280;16845;48.670;9.000;2023-08-06T10:38:02;94845.78;;;14.21
30001;BMP280;16845;48.670;9.000;2023-08-06T10:40:31;94844.78;;;14.08
30001;BMP280;16845;48.670;9.000;2023-08-06T10:43:00;94858.00;;;14.11
30001;BMP280;16845;48.670;9.000;2023-08-06T10:45:27;94856.84;;;14.34
30001;BMP280;16845;48.670;9.000;2023-08-06T10:47:55;94854.06;;;14.23
30001;BMP280;16845;48.670;9.000;2023-08-06T10:50:21;94862.69;;;14.34
30001;BMP280;16845;48.670;9.000;2023-08-06T10:52:48;94854.63;;;14.28
30001;BMP280;16845;48.670;9.000;2023-08-06T10:55:22;94858.34;;;14.06
30001;BMP280;16845;48.670;9.000;2023-08-06T10:57:50;94863.72;;;14.15
30001;BMP280;16845;48.670;9.000;2023-08-06T11:00:17;94865.22;;;14.34
30001;BMP280;16845;48.670;9.000;2023-08-06T11:02:43;94862.38;;;14.56
30001;BMP280;16845;48.670;9.000;2023-08-06T11:05:11;94858.75;;;14.75
30001;BMP280;16845;48.670;9.000;2023-08-06T11:07:38;94873.72;;;14.63
30001;BMP280;16845;48.670;9.000;2023-08-06T11:10:06;94870.66;;;14.58
30001;BMP280;16845;48.670;9.000;2023-08-06T11:12:33;94876.59;;;14.57
30001;BMP280;16845;48.670;9.000;2023-08-06T11:15:03;94874.63;;;14.77
30001;BMP280;16845;48.670;9.000;2023-08-06T11:17:31;94884.97;;;14.73
30001;BMP280;16845;48.670;9.000;2023-08-06T11:19:59;94883.03;;;14.78
30001;BMP280;16845;48.670;9.000;2023-08-06T11:22:26;94884.84;;;14.60
30001;BMP280;16845;48.670;9.000;2023-08-06T11:24:53;94884.31;;;14.69
30001;BMP280;16845;48.670;9.000;2023-08-06T11:27:20;94881.72;;;14.71
30001;BMP280;16845;48.670;9.000;2023-08-06T11:29:46;94873.19;;;14.58
30001;BMP280;16845;48.670;9.000;2023-08-06T11:32:14;94882.25;;;14.91
30001;BMP280;16845;48.670;9.000;2023-08-06T11:34:43;94877.72;;;15.12
30001;BMP280;16845;48.670;9.000;2023-08-06T11:37:10;94887.00;;;15.11
30001;BMP280;16845;48.670;9.000;2023-08-06T11:39:37;94893.34;;;14.89
30001;BMP280;16845;48.670;9.000;2023-08-06T11:42:05;94900.44;;;14.82
30001;BMP280;16845;48.670;9.000;2023-08-06T11:44:32;94883.25;;;14.89
30001;BMP280;16845;48.670;9.000;2023-08-06T11:47:00;94891.03;;;14.70
30001;BMP280;16845;48.670;9.000;2023-08-06T11:49:41;94907.44;;;14.77
30001;BMP280;16845;48.670;9.000;2023-08-06T11:52:10;94900.94;;;14.73
30001;BMP280;16845;48.670;9.000;2023-08-06T11:54:37;94898.91;;;14.80
30001;BMP280;16845;48.670;9.000;2023-08-06T11:57:05;94911.47;;;14.66
30001;BMP280;16845;48.670;9.000;2023-08-06T11:59:31;94916.91;;;14.58
30001;BMP280;16845;48.670;9.000;2023-08-06T12:02:00;94920.44;;;14.56
30001;BMP280;16845;48.670;9.000;2023-08-06T12:04:26;94916.09;;;14.42
30001;BMP280;16845;48.670;9.000;2023-08-06T12:06:54;94928.47;;;14.47
30001;BMP280;16845;48.670;9.000;2023-08-06T12:09:21;94931.47;;;14.38
30001;BMP280;16845;48.670;9.000;2023-08-06T12:11:47;94936.72;;;14.66
30001;BMP280;16845;48.670;9.000;2023-08-06T12:14:14;94929.63;;;14.41
30001;BMP280;16845;48.670;9.000;2023-08-06T12:16:40;94940.53;;;14.42
30001;BMP280;16845;48.670;9.000;2023-08-06T12:19:07;94938.88;;;14.41
30001;BMP280;16845;48.670;9.000;2023-08-06T12:21:33;94929.44;;;14.60
30001;BMP280;16845;48.670;9.000;2023-08-06T12:24:01;94936.47;;;14.55
30001;BMP280;16845;48.670;9.000;2023-08-06T12:26:28;94934.06;;;14.83
30001;BMP280;16845;48.670;9.000;2023-08-06T12:28:54;94936.28;;;14.89
30001;BMP280;16845;48.670;9.000;2023-08-06T12:31:21;94936.78;;;14.80
30001;BMP280;16845;48.670;9.000;2023-08-06T12:33:47;94941.16;;;14.45
30001;BMP280;16845;48.670;9.000;2023-08-06T12:36:13;94942.00;;;14.77
30001;BMP280;16845;48.670;9.000;2023-08-06T12:38:40;94933.44;;;14.64
30001;BMP280;16845;48.670;9.000;2023-08-06T12:41:08;94943.28;;;14.68
30001;BMP280;16845;48.670;9.000;2023-08-06T12:43:34;94942.81;;;14.62
30001;BMP280;16845;48.670;9.000;2023-08-06T12:46:01;94931.91;;;14.77
30001;BMP280;16845;48.670;9.000;2023-08-06T12:48:27;94950.13;;;14.97
30001;BMP280;16845;48.670;9.000;2023-08-06T12:50:54;94948.91;;;14.89
30001;BMP280;16845;48.670;9.000;2023-08-06T12:53:20;94956.56;;;15.03
30001;BMP280;16845;48.670;9.000;2023-08-06T12:55:47;94958.19;;;14.88
30001;BMP280;16845;48.670;9.000;2023-08-06T12:58:15;94950.78;;;14.85
30001;BMP280;16845;48.670;9.000;2023-08-06T13:00:41;94961.81;;;15.29
30001;BMP280;16845;48.670;9.000;2023-08-06T13:03:08;94947.56;;;15.58
30001;BMP280;16845;48.670;9.000;2023-08-06T13:05:35;94958.81;;;15.96
30001;BMP280;16845;48.670;9.000;2023-08-06T13:08:01;94950.56;;;16.06
30001;BMP280;16845;48.670;9.000;2023-08-06T13:10:28;94953.94;;;16.21
30001;BMP280;16845;48.670;9.000;2023-08-06T13:12:55;94956.63;;;16.32
30001;BMP280;16845;48.670;9.000;2023-08-06T13:15:22;94967.50;;;15.92
30001;BMP280;16845;48.670;9.000;2023-08-06T13:17:49;94964.66;;;15.82
30001;BMP280;16845;48.670;9.000;2023-08-06T13:20:16;94967.44;;;15.78
30001;BMP280;16845;48.670;9.000;2023-08-06T13:22:46;94959.06;;;16.05
30001;BMP280;16845;48.670;9.000;2023-08-06T13:25:12;94962.00;;;15.56
30001;BMP280;16845;48.670;9.000;2023-08-06T13:27:39;94969.03;;;15.51
30001;BMP280;16845;48.670;9.000;2023-08-06T13:30:07;94978.38;;;15.64
30001;BMP280;16845;48.670;9.000;2023-08-06T13:32:35;94968.34;;;15.33
30001;BMP280;16845;48.670;9.000;2023-08-06T13:35:01;94985.78;;;15.81
30001;BMP280;16845;48.670;9.000;2023-08-06T13:37:28;94988.81;;;16.85
30001;BMP280;16845;48.670;9.000;2023-08-06T13:39:54;94985.28;;;17.14
30001;BMP280;16845;48.670;9.000;2023-08-06T13:42:22;94987.38;;;16.81
30001;BMP280;16845;48.670;9.000;2023-08-06T13:44:48;94969.22;;;17.01
30001;BMP280;16845;48.670;9.000;2023-08-06T13:47:15;94972.81;;;17.11
30001;BMP280;16845;48.670;9.000;2023-08-06T13:49:43;94971.03;;;17.52
30001;BMP280;16845;48.670;9.000;2023-08-06T13:52:09;94977.28;;;18.11
30001;BMP280;16845;48.670;9.000;2023-08-06T13:54:48;94974.75;;;18.23
30001;BMP280;16845;48.670;9.000;2023-08-06T13:57:14;94970.88;;;17.68
30001;BMP280;16845;48.670;9.000;2023-08-06T13:59:41;94990.34;;;17.14
30001;BMP280;16845;48.670;9.000;2023-08-06T14:02:07;94973.38;;;16.20
30001;BMP280;16845;48.670;9.000;2023-08-06T14:04:34;94978.72;;;16.02
30001;BMP280;16845;48.670;9.000;2023-08-06T14:07:02;94983.44;;;15.78
30001;BMP280;16845;48.670;9.000;2023-08-06T14:09:29;94988.06;;;15.86